Time;durP1;ratioP1;P1;durP2;ratioP2;P2;SDS_P1;SDS_P2;PMS_P1;PMS_P2;Temp;Humidity;BMP_temperature;BMP_pressure;BME280_temperature;BME280_humidity;BME280_pressure;Samples;Min_cycle;Max_cycle;Signal;HPM_P1;HPM_P2
2022/06/08 00:01:03;;;;;;;8.50;6.80;;;;;;;21.18;60.92;98540.91;233543;1217;139974;-61
2022/06/08 00:06:09;;;;;;;9.70;8.00;;;;;;;21.14;60.88;98540.63;233328;1217;139633;-61
2022/06/08 00:11:12;;;;;;;9.90;7.60;;;;;;;21.09;60.95;98529.16;233673;1214;139033;-61
2022/06/08 00:16:16;;;;;;;7.90;6.70;;;;;;;21.10;61.04;98538.48;233634;1217;139357;-61
2022/06/08 00:21:19;;;;;;;9.60;7.20;;;;;;;21.06;61.09;98538.95;233601;1217;139581;-61
2022/06/08 00:26:24;;;;;;;8.00;6.90;;;;;;;21.06;61.15;98544.34;232821;1219;139028;-60
2022/06/08 00:31:27;;;;;;;9.60;7.30;;;;;;;21.06;61.06;98542.71;233535;1217;139265;-60
2022/06/08 00:36:31;;;;;;;7.90;6.70;;;;;;;21.02;60.99;98538.61;233746;1217;138927;-59
2022/06/08 00:41:36;;;;;;;7.80;6.30;;;;;;;21.05;60.92;98543.38;233575;1217;138683;-59
2022/06/08 00:46:40;;;;;;;7.50;6.50;;;;;;;21.01;60.92;98547.70;232860;1217;138726;-59
2022/06/08 00:51:43;;;;;;;8.60;6.70;;;;;;;21.05;60.99;98547.50;233687;1217;139960;-59
2022/06/08 00:56:52;;;;;;;7.70;6.60;;;;;;;21.06;61.01;98548.98;233654;1217;140315;-61
2022/06/08 01:01:55;;;;;;;8.20;7.20;;;;;;;21.10;60.93;98546.61;233588;1217;138524;-60
2022/06/08 01:07:00;;;;;;;;;;;;;;;21.11;60.93;98538.89;233537;1217;138988;-61
2022/06/08 01:12:25;;;;;;;8.10;7.20;;;;;;;21.09;60.76;98533.31;233179;1217;126029;-61
2022/06/08 01:17:35;;;;;;;8.20;7.20;;;;;;;21.07;60.84;98531.35;233675;1216;139383;-60
2022/06/08 01:22:39;;;;;;;7.60;6.50;;;;;;;21.05;60.82;98524.97;233643;1217;138922;-60
2022/06/08 01:28:00;;;;;;;8.40;7.40;;;;;;;21.00;60.67;98525.05;233714;1219;140191;-60
2022/06/08 01:33:16;;;;;;;8.70;7.80;;;;;;;21.07;60.88;98528.02;233453;1217;138910;-60
2022/06/08 01:38:25;;;;;;;8.90;7.10;;;;;;;21.07;60.82;98525.64;233654;1217;138727;-59
2022/06/08 01:43:56;;;;;;;8.60;6.90;;;;;;;21.07;60.66;98514.10;233615;1217;141398;-60
2022/06/08 01:49:20;;;;;;;7.60;6.90;;;;;;;21.07;60.80;98508.33;233518;1217;139187;-60
2022/06/08 01:54:38;;;;;;;10.80;7.90;;;;;;;21.08;60.83;98504.98;233572;1217;139154;-59
2022/06/08 01:59:59;;;;;;;8.40;7.60;;;;;;;21.00;60.83;98504.01;233797;1216;138577;-60
2022/06/08 02:05:29;;;;;;;10.90;8.20;;;;;;;20.98;60.74;98503.29;233618;1217;139248;-60
2022/06/08 02:10:55;;;;;;;9.50;8.50;;;;;;;21.02;60.83;98507.39;233433;1218;138866;-59
2022/06/08 02:16:30;;;;;;;;;;;;;;;21.03;60.92;98511.27;233888;1217;138580;-60
2022/06/08 02:21:42;;;;;;;12.70;9.10;;;;;;;21.00;60.94;98509.73;233728;1216;124812;-57
2022/06/08 02:27:12;;;;;;;11.90;10.00;;;;;;;20.97;60.86;98504.56;233494;1217;139572;-59
2022/06/08 02:37:54;;;;;;;12.10;10.20;;;;;;;20.91;60.92;98500.34;233587;1217;139199;-58
2022/06/08 02:43:03;;;;;;;13.20;11.80;;;;;;;20.88;60.80;98494.94;233612;1217;139673;-59
2022/06/08 02:48:13;;;;;;;17.00;12.70;;;;;;;20.85;60.74;98492.59;233807;1217;141130;-59
2022/06/08 02:53:18;;;;;;;16.20;12.10;;;;;;;20.85;60.77;98489.73;233741;1216;139532;-60
2022/06/08 02:59:07;;;;;;;13.80;11.60;;;;;;;20.78;60.82;98491.49;233602;1217;139529;-58
2022/06/08 03:04:17;;;;;;;15.90;11.70;;;;;;;20.75;60.82;98490.03;233456;1217;140155;-58
2022/06/08 03:09:22;;;;;;;13.70;10.40;;;;;;;20.72;60.90;98488.41;233717;1217;141669;-57
2022/06/08 03:14:27;;;;;;;;;;;;;;;20.73;60.97;98482.60;233688;1217;140568;-58
2022/06/08 03:19:35;;;;;;;13.40;11.30;;;;;;;20.78;61.03;98490.69;233697;1216;126159;-57
2022/06/08 03:24:39;;;;;;;16.90;11.80;;;;;;;20.79;61.00;98490.04;233768;1216;140166;-58
2022/06/08 03:29:48;;;;;;;13.00;11.60;;;;;;;20.73;61.01;98486.84;233738;1215;139624;-57
2022/06/08 03:34:52;;;;;;;13.80;11.70;;;;;;;20.68;61.10;98500.40;233755;1217;139063;-57
2022/06/08 03:39:55;;;;;;;14.40;11.90;;;;;;;20.68;61.05;98495.47;233686;1217;139353;-59
2022/06/08 03:45:00;;;;;;;17.40;12.00;;;;;;;20.70;61.32;98508.02;233653;1217;139736;-57
2022/06/08 03:50:06;;;;;;;16.10;11.90;;;;;;;20.68;61.18;98504.55;233691;1216;139805;-60
2022/06/08 03:55:10;;;;;;;17.10;12.10;;;;;;;20.66;61.19;98507.77;233531;1217;138941;-58
2022/06/08 04:00:19;;;;;;;187.00;118.40;;;;;;;20.64;61.42;98507.77;233679;1217;139579;-59
2022/06/08 04:05:37;;;;;;;13.40;11.30;;;;;;;20.80;61.86;98507.02;233540;1217;140655;-61
2022/06/08 04:10:43;;;;;;;13.90;11.00;;;;;;;20.95;61.57;98517.72;233666;1217;139715;-58
2022/06/08 04:15:47;;;;;;;120.50;94.20;;;;;;;20.92;61.15;98512.13;233769;1217;139716;-62
2022/06/08 04:20:56;;;;;;;17.40;13.10;;;;;;;20.96;61.34;98514.41;232606;1217;139488;-59
2022/06/08 04:26:04;;;;;;;82.10;59.40;;;;;;;21.00;61.24;98509.73;233797;1216;138960;-60
2022/06/08 04:31:08;;;;;;;19.00;15.00;;;;;;;20.99;61.08;98509.88;233583;1217;139881;-60
2022/06/08 04:36:13;;;;;;;12.30;9.70;;;;;;;20.99;61.13;98516.95;233546;1217;141363;-59
2022/06/08 04:41:17;;;;;;;18.80;14.50;;;;;;;21.09;61.08;98514.16;233422;1217;139964;-60
2022/06/08 04:46:22;;;;;;;59.50;52.90;;;;;;;21.23;61.46;98504.85;233676;1217;139484;-59
2022/06/08 04:51:27;;;;;;;27.20;23.80;;;;;;;21.27;61.15;98494.56;233688;1217;139211;-58
2022/06/08 04:56:31;;;;;;;15.30;12.00;;;;;;;21.33;61.07;98503.31;233626;1216;139685;-59
2022/06/08 05:01:35;;;;;;;13.90;11.10;;;;;;;21.30;60.80;98497.70;233689;1217;138960;-59
2022/06/08 05:06:41;;;;;;;13.20;10.80;;;;;;;21.32;60.91;98498.57;233413;1217;138974;-59
2022/06/08 05:11:45;;;;;;;13.40;9.40;;;;;;;21.32;60.59;98493.52;233674;1217;138908;-58
2022/06/08 05:16:49;;;;;;;120.90;97.00;;;;;;;21.28;60.57;98490.36;233641;1217;139512;-58
2022/06/08 05:21:53;;;;;;;19.60;15.10;;;;;;;21.27;60.48;98498.22;233840;1217;140187;-57
2022/06/08 05:26:58;;;;;;;;;;;;;;;21.23;60.55;98504.50;233505;1217;139711;-59
2022/06/08 05:32:03;;;;;;;21.90;12.70;;;;;;;21.09;60.53;98506.77;233791;1216;126622;-59
2022/06/08 05:37:07;;;;;;;19.00;12.80;;;;;;;21.00;60.49;98511.77;233705;1217;139808;-60
2022/06/08 05:42:11;;;;;;;17.60;13.60;;;;;;;20.91;60.50;98520.23;233513;1217;138703;-61
2022/06/08 05:47:16;;;;;;;;;;;;;;;20.82;60.67;98518.88;233730;1216;139520;-59
2022/06/08 05:52:20;;;;;;;17.00;12.70;;;;;;;20.72;60.69;98524.46;233724;1217;127464;-60
2022/06/08 05:57:23;;;;;;;195.00;166.50;;;;;;;20.67;60.85;98527.23;233595;1217;139221;-60
2022/06/08 06:02:26;;;;;;;29.70;21.20;;;;;;;20.80;61.65;98520.91;233635;1217;140258;-61
2022/06/08 06:07:30;;;;;;;17.30;13.90;;;;;;;21.17;62.17;98517.21;233568;1217;141468;-61
2022/06/08 06:12:54;;;;;;;26.00;19.40;;;;;;;21.38;61.58;98519.88;233686;1217;140228;-61
2022/06/08 06:18:02;;;;;;;24.30;17.90;;;;;;;21.60;62.20;98524.95;233750;1216;139299;-63
2022/06/08 06:23:06;;;;;;;17.10;13.70;;;;;;;21.93;62.03;98522.20;233599;1217;138732;-63
2022/06/08 06:28:32;;;;;;;15.10;10.90;;;;;;;22.14;61.61;98534.76;233733;1217;139048;-63
2022/06/08 06:33:58;;;;;;;133.20;119.80;;;;;;;22.16;60.69;98541.80;233857;1217;139452;-63
2022/06/08 06:39:02;;;;;;;103.50;91.40;;;;;;;22.06;60.32;98536.23;233673;1216;139789;-63
2022/06/08 06:44:08;;;;;;;18.30;12.90;;;;;;;22.00;60.03;98546.09;233678;1216;139412;-63
2022/06/08 06:49:19;;;;;;;21.60;16.50;;;;;;;21.86;59.71;98545.34;233613;1217;139786;-63
2022/06/08 06:54:24;;;;;;;15.90;12.40;;;;;;;21.77;59.82;98544.79;233263;1216;139012;-63
2022/06/08 06:59:28;;;;;;;31.00;26.80;;;;;;;21.68;59.77;98547.08;233613;1217;141459;-63
2022/06/08 07:04:31;;;;;;;16.20;12.40;;;;;;;21.60;59.77;98552.34;233690;1217;139160;-62
2022/06/08 07:09:35;;;;;;;17.40;15.00;;;;;;;21.53;59.82;98562.25;233821;1217;139666;-62
2022/06/08 07:14:39;;;;;;;18.50;13.50;;;;;;;21.49;59.72;98563.02;233583;1217;139801;-59
2022/06/08 07:19:48;;;;;;;24.40;15.40;;;;;;;21.41;59.86;98559.92;233609;1217;139055;-60
2022/06/08 07:24:52;;;;;;;21.50;14.80;;;;;;;21.40;60.08;98562.63;233679;1217;140293;-63
2022/06/08 07:29:55;;;;;;;19.40;14.80;;;;;;;21.39;60.15;98558.91;233754;1217;140227;-61
2022/06/08 07:35:05;;;;;;;32.50;26.40;;;;;;;21.38;60.31;98554.94;233301;1217;138973;-61
2022/06/08 07:40:08;;;;;;;18.30;13.90;;;;;;;21.34;60.18;98547.10;233797;1217;139654;-64
2022/06/08 07:45:12;;;;;;;15.30;12.20;;;;;;;21.27;60.28;98536.35;233776;1217;139105;-63
2022/06/08 07:50:15;;;;;;;31.60;28.10;;;;;;;21.26;60.58;98532.59;233400;1217;138956;-62
2022/06/08 07:55:25;;;;;;;12.30;10.10;;;;;;;21.34;60.88;98523.95;233786;1217;139029;-59
2022/06/08 08:00:29;;;;;;;14.00;10.40;;;;;;;21.44;60.62;98520.06;233689;1217;139726;-60
2022/06/08 08:05:31;;;;;;;19.30;9.70;;;;;;;21.50;60.74;98512.92;233640;1217;139157;-60
2022/06/08 08:10:34;;;;;;;14.00;10.70;;;;;;;21.56;60.78;98510.49;233654;1217;139237;-60
2022/06/08 08:15:38;;;;;;;17.90;11.40;;;;;;;21.63;60.63;98517.52;233765;1216;139343;-58
2022/06/08 08:20:42;;;;;;;15.90;11.80;;;;;;;21.62;60.68;98521.42;233667;1216;141911;-60
2022/06/08 08:25:45;;;;;;;19.50;12.30;;;;;;;21.65;60.61;98525.94;233781;1216;140222;-63
2022/06/08 08:30:48;;;;;;;21.40;12.40;;;;;;;21.73;60.56;98544.20;233573;1217;139560;-62
2022/06/08 08:35:52;;;;;;;20.00;13.50;;;;;;;21.71;60.53;98548.23;233514;1217;139993;-61
2022/06/08 08:40:57;;;;;;;21.70;14.30;;;;;;;21.69;60.28;98550.46;233521;1217;139881;-60
2022/06/08 08:46:03;;;;;;;;;;;;;;;21.66;60.36;98569.77;233835;1217;139476;-61
2022/06/08 08:51:32;;;;;;;22.20;15.20;;;;;;;21.53;60.34;98576.51;233870;1216;125732;-60
2022/06/08 08:56:38;;;;;;;25.90;15.40;;;;;;;21.40;60.30;98587.02;233727;1217;139676;-60
2022/06/08 09:01:45;;;;;;;23.10;14.30;;;;;;;21.22;60.17;98597.91;233787;1217;139644;-59
2022/06/08 09:06:49;;;;;;;22.10;15.80;;;;;;;21.05;60.33;98599.48;233671;1215;139912;-60
2022/06/08 09:11:51;;;;;;;26.40;16.30;;;;;;;20.92;60.74;98597.58;233704;1217;139644;-58
2022/06/08 09:17:19;;;;;;;23.20;15.30;;;;;;;20.91;61.41;98600.31;233731;1217;138932;-59
2022/06/08 09:22:28;;;;;;;61.20;53.80;;;;;;;20.81;61.61;98608.25;233731;1217;139303;-58
2022/06/08 09:27:33;;;;;;;28.70;21.20;;;;;;;20.72;61.80;98602.13;233933;1216;139440;-59
2022/06/08 09:32:51;;;;;;;20.10;14.70;;;;;;;20.66;62.06;98608.13;233731;1217;139760;-58
2022/06/08 09:37:59;;;;;;;18.30;14.70;;;;;;;20.57;62.07;98590.31;233874;1217;139772;-59
2022/06/08 09:43:29;;;;;;;17.00;14.20;;;;;;;20.69;62.64;98573.17;233835;1217;139435;-60
2022/06/08 09:54:19;;;;;;;21.30;16.40;;;;;;;20.98;63.28;98536.70;233721;1217;139054;-56
2022/06/08 09:59:56;;;;;;;19.30;14.10;;;;;;;21.07;63.27;98532.41;233804;1215;139643;-57
2022/06/08 10:05:11;;;;;;;18.10;14.30;;;;;;;21.20;63.27;98514.86;233670;1217;140058;-58
2022/06/08 10:10:35;;;;;;;18.00;14.20;;;;;;;21.37;63.52;98512.44;233562;1216;139740;-58
2022/06/08 10:15:51;;;;;;;14.20;11.80;;;;;;;21.46;63.36;98503.39;233767;1216;138960;-57
2022/06/08 10:21:00;;;;;;;242.20;190.30;;;;;;;21.52;63.22;98509.63;233697;1217;139794;-59
2022/06/08 10:26:27;;;;;;;13.30;10.90;;;;;;;21.53;63.10;98507.91;233568;1216;139741;-60
2022/06/08 10:31:30;;;;;;;21.80;19.30;;;;;;;21.59;63.24;98509.19;233663;1215;141570;-58
2022/06/08 10:36:34;;;;;;;11.60;9.30;;;;;;;21.72;63.20;98510.86;233279;1217;139014;-59
2022/06/08 10:47:18;;;;;;;10.00;9.00;;;;;;;21.69;63.02;98494.48;233320;1216;139359;-59
2022/06/08 10:52:21;;;;;;;6.90;6.00;;;;;;;21.72;63.30;98483.48;233765;1217;138850;-59
2022/06/08 10:57:42;;;;;;;6.90;5.30;;;;;;;21.72;62.86;98479.35;233746;1217;140306;-59
2022/06/08 11:03:03;;;;;;;9.60;5.70;;;;;;;21.70;62.73;98485.88;233428;1217;139759;-59
2022/06/08 11:08:12;;;;;;;6.60;5.90;;;;;;;21.65;62.95;98487.58;233577;1215;138438;-59
2022/06/08 11:13:18;;;;;;;7.50;6.20;;;;;;;21.60;62.84;98487.21;233677;1217;139165;-59
2022/06/08 11:18:21;;;;;;;7.30;6.40;;;;;;;21.53;62.90;98486.23;233122;1217;138810;-60
2022/06/08 11:23:32;;;;;;;6.30;5.60;;;;;;;21.48;63.06;98484.95;233697;1216;138670;-60
2022/06/08 11:28:40;;;;;;;7.50;5.40;;;;;;;21.51;63.20;98494.54;233544;1217;139860;-60
2022/06/08 11:33:53;;;;;;;7.70;6.20;;;;;;;21.60;63.18;98484.74;233795;1217;139626;-60
2022/06/08 11:39:03;;;;;;;16.30;6.90;;;;;;;21.61;63.05;98486.52;233526;1217;138513;-60
2022/06/08 11:44:13;;;;;;;12.20;8.70;;;;;;;21.60;63.36;98479.23;233543;1217;139739;-60
2022/06/08 11:49:37;;;;;;;12.90;7.70;;;;;;;21.59;63.19;98480.85;233803;1216;139834;-60
2022/06/08 11:54:42;;;;;;;9.50;6.10;;;;;;;21.52;62.96;98477.34;233261;1217;139175;-60
2022/06/08 11:59:46;;;;;;;8.70;5.80;;;;;;;21.53;63.04;98480.31;233389;1216;139475;-60
2022/06/08 12:04:54;;;;;;;147.00;124.50;;;;;;;21.55;63.16;98474.98;233687;1216;139152;-61
2022/06/08 12:10:07;;;;;;;12.00;8.90;;;;;;;21.57;63.36;98478.86;233912;1217;211349;-60
2022/06/08 12:15:34;;;;;;;10.60;5.80;;;;;;;21.56;63.28;98477.79;233672;1217;139284;-59
2022/06/08 12:20:40;;;;;;;12.20;6.50;;;;;;;21.46;63.10;98483.63;233817;1217;138501;-60
2022/06/08 12:25:52;;;;;;;;;;;;;;;21.41;63.25;98482.21;233579;1217;139203;-60
2022/06/08 12:30:58;;;;;;;16.50;5.60;;;;;;;21.43;63.44;98481.38;233921;1216;128378;-60
2022/06/08 12:36:08;;;;;;;56.60;41.20;;;;;;;21.48;63.43;98482.78;233780;1215;139129;-60
2022/06/08 12:41:16;;;;;;;18.10;9.00;;;;;;;21.59;63.70;98477.58;233770;1216;139377;-60
2022/06/08 12:46:22;;;;;;;13.90;6.20;;;;;;;21.63;63.48;98472.90;233539;1217;139022;-60
2022/06/08 12:51:33;;;;;;;9.10;5.70;;;;;;;21.63;63.38;98469.01;233161;1216;141814;-60
2022/06/08 12:56:37;;;;;;;57.40;44.80;;;;;;;21.62;63.44;98465.86;233407;1216;141614;-60
2022/06/08 13:01:44;;;;;;;6.60;5.70;;;;;;;21.76;63.66;98466.09;233408;1216;140543;-60
2022/06/08 13:06:48;;;;;;;6.00;4.90;;;;;;;21.88;63.43;98466.89;233617;1216;139004;-61
2022/06/08 13:11:56;;;;;;;6.10;5.20;;;;;;;21.98;63.45;98465.70;233307;1216;139331;-59
2022/06/08 13:17:00;;;;;;;6.80;5.70;;;;;;;22.09;63.42;98450.44;233466;1217;138633;-59
2022/06/08 13:22:04;;;;;;;6.80;5.20;;;;;;;22.18;63.20;98453.09;233502;1217;139925;-60
2022/06/08 13:27:14;;;;;;;31.80;27.80;;;;;;;22.13;62.92;98449.89;233639;1217;140086;-59
2022/06/08 13:32:19;;;;;;;30.70;27.50;;;;;;;22.17;63.38;98441.44;233183;1217;139403;-59
2022/06/08 13:37:31;;;;;;;6.20;4.30;;;;;;;22.31;63.45;98444.90;233301;1217;139651;-60
2022/06/08 13:42:35;;;;;;;4.70;3.90;;;;;;;22.40;62.93;98442.16;233476;1216;138867;-59
2022/06/08 13:47:40;;;;;;;6.20;4.80;;;;;;;22.41;62.68;98433.52;233662;1217;138696;-60
2022/06/08 13:52:44;;;;;;;9.00;5.20;;;;;;;22.52;62.79;98424.95;233709;1216;138925;-59
2022/06/08 13:57:47;;;;;;;4.60;4.10;;;;;;;22.69;62.66;98418.65;233800;1217;139160;-57
2022/06/08 14:02:58;;;;;;;5.20;4.70;;;;;;;22.81;62.44;98411.75;233573;1217;138848;-60
2022/06/08 14:13:27;;;;;;;52.70;44.10;;;;;;;22.85;61.75;98396.27;233710;1217;138584;-58
2022/06/08 14:18:37;;;;;;;20.80;15.50;;;;;;;22.87;61.63;98401.70;232866;1217;139900;-59
2022/06/08 14:23:44;;;;;;;10.30;7.90;;;;;;;22.91;61.95;98395.59;233585;1217;140388;-58
2022/06/08 14:28:51;;;;;;;15.80;12.50;;;;;;;23.00;61.99;98396.73;233714;1215;140046;-60
2022/06/08 14:33:54;;;;;;;8.20;6.20;;;;;;;23.05;61.87;98398.79;233757;1216;139287;-59
2022/06/08 14:38:57;;;;;;;15.10;10.20;;;;;;;23.10;61.82;98393.39;233702;1217;138920;-60
2022/06/08 14:44:00;;;;;;;20.10;14.80;;;;;;;23.20;61.79;98401.83;233774;1216;139688;-60
2022/06/08 14:49:05;;;;;;;12.40;9.30;;;;;;;23.20;61.52;98386.78;233764;1217;139518;-59
2022/06/08 14:54:20;;;;;;;15.30;9.30;;;;;;;23.24;61.35;98382.40;233521;1217;138905;-60
2022/06/08 14:59:23;;;;;;;22.20;17.50;;;;;;;23.27;61.17;98376.08;233582;1215;139296;-59
2022/06/08 15:04:29;;;;;;;12.30;9.60;;;;;;;23.29;61.18;98362.95;233827;1217;139832;-60
2022/06/08 15:09:32;;;;;;;;;;;;;;;23.34;60.92;98364.87;233719;1217;139359;-59
2022/06/08 15:14:40;;;;;;;91.30;81.50;;;;;;;23.36;60.95;98360.08;233661;1217;125541;-60
2022/06/08 15:19:47;;;;;;;11.60;10.40;;;;;;;23.36;60.62;98350.91;233776;1216;138882;-60
2022/06/08 15:24:51;;;;;;;9.30;7.50;;;;;;;23.39;60.55;98337.98;233675;1217;140541;-59
2022/06/08 15:29:59;;;;;;;12.80;9.40;;;;;;;23.46;60.28;98341.25;232999;1216;139262;-60
2022/06/08 15:35:03;;;;;;;8.30;7.30;;;;;;;23.46;60.10;98331.30;233781;1216;139000;-61
2022/06/08 15:40:13;;;;;;;6.60;5.70;;;;;;;23.47;60.05;98319.59;233878;1216;138998;-60
2022/06/08 15:45:18;;;;;;;7.00;5.20;;;;;;;23.43;59.90;98317.58;233684;1217;138676;-61
2022/06/08 15:50:29;;;;;;;6.20;4.90;;;;;;;23.38;59.77;98306.71;233620;1216;138472;-61
2022/06/08 15:55:36;;;;;;;4.30;3.90;;;;;;;23.35;59.69;98300.58;233476;1217;138832;-60
2022/06/08 16:00:39;;;;;;;4.40;4.00;;;;;;;23.40;59.47;98310.23;233766;1215;139163;-60
2022/06/08 16:05:43;;;;;;;5.10;3.90;;;;;;;23.41;59.56;98316.55;233682;1216;138838;-60
2022/06/08 16:10:46;;;;;;;19.70;14.80;;;;;;;23.49;59.54;98311.63;233351;1217;138853;-59
2022/06/08 16:15:49;;;;;;;19.30;14.70;;;;;;;23.55;59.42;98308.88;233634;1216;139303;-62
2022/06/08 16:20:52;;;;;;;11.80;8.90;;;;;;;23.55;59.41;98308.95;233536;1217;139597;-61
2022/06/08 16:25:55;;;;;;;11.20;7.60;;;;;;;23.50;59.33;98319.20;233561;1217;138843;-61
2022/06/08 16:30:58;;;;;;;8.30;5.50;;;;;;;23.47;59.39;98316.83;233706;1216;138844;-62
2022/06/08 16:36:02;;;;;;;5.00;4.40;;;;;;;23.38;59.37;98315.15;233715;1216;139199;-61
2022/06/08 16:41:06;;;;;;;57.80;45.90;;;;;;;23.36;59.16;98325.52;233250;1217;139013;-60
2022/06/08 16:46:09;;;;;;;13.70;12.00;;;;;;;23.33;59.20;98319.66;233775;1217;138995;-60
2022/06/08 16:51:13;;;;;;;12.40;10.30;;;;;;;23.31;59.22;98310.07;233636;1217;141084;-61
2022/06/08 16:56:16;;;;;;;23.90;10.60;;;;;;;23.28;59.30;98292.20;233618;1217;139694;-61
2022/06/08 17:01:19;;;;;;;10.30;6.90;;;;;;;23.28;59.37;98296.21;233051;1217;139204;-61
2022/06/08 17:06:24;;;;;;;10.20;5.60;;;;;;;23.23;59.32;98310.50;233232;1217;138559;-59
2022/06/08 17:11:36;;;;;;;;;;;;;;;23.17;59.30;98313.12;233708;1217;138784;-61
2022/06/08 17:16:40;;;;;;;7.30;5.90;;;;;;;23.12;59.50;98329.80;233577;1217;125099;-60
2022/06/08 17:21:44;;;;;;;83.50;63.10;;;;;;;23.11;59.69;98334.05;233635;1216;139510;-61
2022/06/08 17:26:47;;;;;;;14.60;9.50;;;;;;;23.15;59.72;98331.34;232957;1217;139745;-62
2022/06/08 17:31:50;;;;;;;14.30;8.60;;;;;;;23.18;59.95;98330.62;233104;1217;139332;-60
2022/06/08 17:36:54;;;;;;;9.90;6.40;;;;;;;23.20;60.25;98327.02;233430;1217;139895;-60
2022/06/08 17:47:26;;;;;;;7.50;5.10;;;;;;;23.21;60.29;98350.78;232517;1217;139519;-61
2022/06/08 17:52:33;;;;;;;5.00;4.40;;;;;;;23.21;60.09;98374.75;232848;1216;140426;-58
2022/06/08 17:57:37;;;;;;;5.70;3.70;;;;;;;23.16;60.12;98382.77;233639;1217;138462;-59
2022/06/08 18:02:42;;;;;;;7.30;3.80;;;;;;;23.14;60.00;98382.08;233508;1216;139238;-59
2022/06/08 18:07:45;;;;;;;5.40;3.90;;;;;;;23.09;59.69;98393.92;233037;1217;139740;-60
2022/06/08 18:12:49;;;;;;;74.70;59.40;;;;;;;23.05;59.68;98399.88;233181;1217;139106;-62
2022/06/08 18:17:58;;;;;;;18.60;16.20;;;;;;;23.03;59.87;98386.88;233073;1217;139417;-59
2022/06/08 18:23:02;;;;;;;5.30;4.80;;;;;;;23.07;60.05;98386.25;232952;1217;139665;-60
2022/06/08 18:28:07;;;;;;;18.20;14.00;;;;;;;23.01;59.94;98388.91;232849;1217;139346;-62
2022/06/08 18:33:11;;;;;;;15.80;13.80;;;;;;;22.92;59.85;98390.45;233097;1217;139498;-59
2022/06/08 18:38:17;;;;;;;10.40;7.10;;;;;;;22.86;60.06;98374.62;233573;1217;139202;-60
2022/06/08 18:43:29;;;;;;;6.20;4.60;;;;;;;22.85;60.32;98353.27;233502;1217;139363;-60
2022/06/08 18:48:32;;;;;;;6.50;4.70;;;;;;;22.81;60.19;98354.64;233438;1217;139377;-59
2022/06/08 18:53:36;;;;;;;54.40;48.40;;;;;;;22.66;60.35;98344.58;233152;1217;140737;-60
2022/06/08 18:58:39;;;;;;;288.50;215.10;;;;;;;22.53;60.63;98327.73;233628;1217;139701;-59
2022/06/08 19:10:23;;;;;;;8.60;5.10;;;;;;;22.30;60.53;98316.67;232922;1217;140480;-59
2022/06/08 19:15:34;;;;;;;6.80;4.80;;;;;;;22.06;60.70;98314.38;233520;1217;138727;-60
2022/06/08 19:20:41;;;;;;;6.10;4.90;;;;;;;21.85;61.23;98314.83;233702;1215;140066;-61
2022/06/08 19:25:46;;;;;;;11.30;6.50;;;;;;;21.76;61.57;98311.45;233746;1215;139408;-59
2022/06/08 19:30:52;;;;;;;21.00;14.60;;;;;;;21.66;61.79;98300.73;233561;1217;139016;-58
2022/06/08 19:36:00;;;;;;;10.50;7.30;;;;;;;21.61;62.04;98322.45;232374;1217;139369;-59
2022/06/08 19:41:05;;;;;;;8.80;5.90;;;;;;;21.52;62.25;98313.73;233643;1217;139476;-60
2022/06/08 19:46:08;;;;;;;8.30;5.80;;;;;;;21.41;62.43;98310.61;233843;1217;138452;-60
2022/06/08 19:51:12;;;;;;;8.20;5.90;;;;;;;21.38;62.53;98319.02;233504;1217;140652;-58
2022/06/08 19:56:16;;;;;;;6.50;5.70;;;;;;;21.36;62.85;98321.98;233699;1217;140042;-58
2022/06/08 20:01:22;;;;;;;6.70;5.80;;;;;;;21.31;62.89;98321.08;233615;1217;139085;-58
2022/06/08 20:06:26;;;;;;;8.60;5.80;;;;;;;21.27;63.15;98324.96;233416;1217;138544;-58
2022/06/08 20:11:29;;;;;;;7.90;6.40;;;;;;;21.18;63.14;98330.75;233696;1215;139085;-60
2022/06/08 20:16:32;;;;;;;9.00;5.80;;;;;;;21.11;63.34;98337.57;233836;1217;138966;-58
2022/06/08 20:21:36;;;;;;;8.80;5.70;;;;;;;21.07;63.37;98345.11;233718;1216;139380;-60
2022/06/08 20:26:40;;;;;;;8.00;7.00;;;;;;;21.10;63.79;98328.05;233653;1217;140499;-59
2022/06/08 20:31:43;;;;;;;12.40;8.90;;;;;;;21.13;63.91;98328.66;233521;1216;139140;-61
2022/06/08 20:36:46;;;;;;;8.40;6.70;;;;;;;21.10;63.86;98339.59;233521;1217;139216;-62
2022/06/08 20:41:49;;;;;;;8.40;7.40;;;;;;;21.06;64.11;98323.11;233667;1215;139610;-62
2022/06/08 20:46:52;;;;;;;8.20;7.10;;;;;;;21.04;64.03;98325.58;233143;1217;138870;-61
2022/06/08 20:51:56;;;;;;;9.10;6.40;;;;;;;21.00;64.10;98324.10;233657;1217;139999;-61
2022/06/08 20:57:02;;;;;;;7.90;6.20;;;;;;;21.02;64.38;98324.85;233582;1217;139789;-60
2022/06/08 21:02:12;;;;;;;8.60;7.00;;;;;;;21.05;64.39;98320.96;233549;1217;138561;-60
2022/06/08 21:07:16;;;;;;;9.20;8.20;;;;;;;21.07;64.60;98323.63;233306;1217;138752;-59
2022/06/08 21:12:20;;;;;;;10.40;7.10;;;;;;;21.04;64.50;98313.63;233247;1215;138748;-59
2022/06/08 21:17:23;;;;;;;7.20;6.50;;;;;;;20.98;64.45;98320.77;233633;1217;140540;-60
2022/06/08 21:22:32;;;;;;;7.50;6.00;;;;;;;20.96;64.39;98319.52;233708;1217;140502;-59
2022/06/08 21:27:35;;;;;;;7.30;6.50;;;;;;;20.93;64.51;98317.08;233710;1217;139548;-60
2022/06/08 21:32:39;;;;;;;9.40;7.10;;;;;;;20.94;64.47;98318.79;233732;1216;140421;-60
2022/06/08 21:37:44;;;;;;;8.80;7.00;;;;;;;20.90;64.48;98312.34;233653;1217;138466;-60
2022/06/08 21:42:48;;;;;;;;;;;;;;;20.85;64.70;98314.60;232995;1217;139096;-60
2022/06/08 21:47:53;;;;;;;7.70;6.20;;;;;;;20.76;64.61;98325.00;233609;1215;125621;-61
2022/06/08 21:52:57;;;;;;;9.90;7.10;;;;;;;20.75;64.82;98325.84;232736;1217;139158;-60
2022/06/08 21:58:01;;;;;;;8.30;7.40;;;;;;;20.72;64.98;98323.31;233658;1217;138985;-62
2022/06/08 22:03:07;;;;;;;7.80;7.00;;;;;;;20.73;65.04;98334.20;233750;1216;139046;-61
2022/06/08 22:08:11;;;;;;;8.30;6.60;;;;;;;20.67;64.89;98336.30;233339;1216;140204;-61
2022/06/08 22:13:24;;;;;;;7.40;6.60;;;;;;;20.66;64.99;98336.86;233107;1216;139250;-60
2022/06/08 22:18:30;;;;;;;7.80;7.10;;;;;;;20.66;65.05;98330.70;233656;1217;139145;-59
2022/06/08 22:23:35;;;;;;;9.00;7.90;;;;;;;20.66;65.22;98329.98;233591;1216;138536;-58
2022/06/08 22:28:39;;;;;;;8.40;7.60;;;;;;;20.62;65.32;98339.02;233364;1217;138717;-60
2022/06/08 22:33:43;;;;;;;7.70;6.90;;;;;;;20.60;65.47;98342.05;233257;1215;138729;-60
2022/06/08 22:38:47;;;;;;;7.50;6.60;;;;;;;20.61;65.66;98338.19;233482;1217;139561;-59
2022/06/08 22:43:49;;;;;;;9.30;7.70;;;;;;;20.65;65.73;98323.95;233556;1216;139244;-60
2022/06/08 22:48:53;;;;;;;9.30;8.00;;;;;;;20.68;65.97;98317.27;233539;1217;140616;-60
2022/06/08 22:53:56;;;;;;;9.30;8.40;;;;;;;20.71;66.03;98315.31;232167;1217;139124;-60
2022/06/08 22:59:00;;;;;;;8.00;7.20;;;;;;;20.70;65.98;98312.73;233028;1217;139616;-60
2022/06/08 23:04:04;;;;;;;11.30;7.90;;;;;;;20.72;66.13;98300.74;233509;1217;139264;-59
2022/06/08 23:09:07;;;;;;;10.00;8.00;;;;;;;20.75;66.07;98301.55;233279;1217;140822;-60
2022/06/08 23:14:19;;;;;;;9.50;8.40;;;;;;;20.72;66.31;98294.99;233476;1217;139054;-60
2022/06/08 23:24:45;;;;;;;11.90;8.00;;;;;;;20.71;66.31;98271.75;233642;1215;140800;-60
2022/06/08 23:29:48;;;;;;;9.40;8.50;;;;;;;20.73;66.53;98269.14;233598;1217;139901;-59
2022/06/08 23:34:51;;;;;;;10.10;8.60;;;;;;;20.73;66.42;98268.90;233704;1217;139014;-60
2022/06/08 23:39:53;;;;;;;9.80;8.70;;;;;;;20.73;66.33;98263.83;233866;1217;138808;-60
2022/06/08 23:44:58;;;;;;;12.10;9.30;;;;;;;20.72;66.60;98260.38;233709;1217;139100;-60
2022/06/08 23:55:23;;;;;;;9.30;8.30;;;;;;;20.77;66.69;98264.65;233966;1215;139458;-60
